sensor_id;sensor_type;location;lat;lon;timestamp;P1;durP1;ratioP1;P2;durP2;ratioP2
18716;SDS011;9487;50.892;6.906;2022-08-30T00:00:48;4.43;;;3.00;;
18716;SDS011;9487;50.892;6.906;2022-08-30T00:03:32;4.00;;;3.07;;
18716;SDS011;9487;50.892;6.906;2022-08-30T00:06:02;4.63;;;3.23;;
18716;SDS011;9487;50.892;6.906;2022-08-30T00:08:30;3.60;;;3.07;;
18716;SDS011;9487;50.892;6.906;2022-08-30T00:10:57;5.13;;;3.03;;
18716;SDS011;9487;50.892;6.906;2022-08-30T00:13:25;4.50;;;2.90;;
18716;SDS011;9487;50.892;6.906;2022-08-30T00:15:53;4.40;;;3.17;;
18716;SDS011;9487;50.892;6.906;2022-08-30T00:18:20;3.00;;;2.70;;
18716;SDS011;9487;50.892;6.906;2022-08-30T00:20:49;3.40;;;3.10;;
18716;SDS011;9487;50.892;6.906;2022-08-30T00:23:18;3.77;;;2.87;;
18716;SDS011;9487;50.892;6.906;2022-08-30T00:25:45;4.37;;;3.03;;
18716;SDS011;9487;50.892;6.906;2022-08-30T00:28:13;4.90;;;3.20;;
18716;SDS011;9487;50.892;6.906;2022-08-30T00:30:41;4.00;;;3.03;;
18716;SDS011;9487;50.892;6.906;2022-08-30T00:33:08;6.87;;;3.07;;
18716;SDS011;9487;50.892;6.906;2022-08-30T00:35:36;4.77;;;2.90;;
18716;SDS011;9487;50.892;6.906;2022-08-30T00:38:05;3.73;;;2.70;;
18716;SDS011;9487;50.892;6.906;2022-08-30T00:40:33;4.50;;;3.00;;
18716;SDS011;9487;50.892;6.906;2022-08-30T00:43:00;3.60;;;3.20;;
18716;SDS011;9487;50.892;6.906;2022-08-30T00:45:32;4.07;;;3.03;;
18716;SDS011;9487;50.892;6.906;2022-08-30T00:48:01;4.43;;;3.10;;
18716;SDS011;9487;50.892;6.906;2022-08-30T00:50:30;4.13;;;3.00;;
18716;SDS011;9487;50.892;6.906;2022-08-30T00:53:02;4.87;;;3.10;;
18716;SDS011;9487;50.892;6.906;2022-08-30T00:55:34;6.77;;;3.60;;
18716;SDS011;9487;50.892;6.906;2022-08-30T00:58:02;4.33;;;3.47;;
18716;SDS011;9487;50.892;6.906;2022-08-30T01:00:31;5.77;;;2.90;;
18716;SDS011;9487;50.892;6.906;2022-08-30T01:02:59;2.83;;;2.53;;
18716;SDS011;9487;50.892;6.906;2022-08-30T01:05:26;3.83;;;2.80;;
18716;SDS011;9487;50.892;6.906;2022-08-30T01:07:53;4.93;;;3.17;;
18716;SDS011;9487;50.892;6.906;2022-08-30T01:10:21;3.60;;;2.73;;
18716;SDS011;9487;50.892;6.906;2022-08-30T01:12:49;6.33;;;3.57;;
18716;SDS011;9487;50.892;6.906;2022-08-30T01:15:15;3.70;;;2.83;;
18716;SDS011;9487;50.892;6.906;2022-08-30T01:17:43;4.60;;;2.73;;
18716;SDS011;9487;50.892;6.906;2022-08-30T01:20:13;4.57;;;3.30;;
18716;SDS011;9487;50.892;6.906;2022-08-30T01:22:53;4.20;;;3.00;;
18716;SDS011;9487;50.892;6.906;2022-08-30T01:25:38;3.97;;;3.10;;
18716;SDS011;9487;50.892;6.906;2022-08-30T01:28:08;5.10;;;3.33;;
18716;SDS011;9487;50.892;6.906;2022-08-30T01:30:37;5.43;;;3.17;;
18716;SDS011;9487;50.892;6.906;2022-08-30T01:33:05;3.57;;;3.00;;
18716;SDS011;9487;50.892;6.906;2022-08-30T01:35:34;4.17;;;2.80;;
18716;SDS011;9487;50.892;6.906;2022-08-30T01:38:07;3.57;;;3.00;;
18716;SDS011;9487;50.892;6.906;2022-08-30T01:40:35;4.53;;;3.23;;
18716;SDS011;9487;50.892;6.906;2022-08-30T01:43:02;3.47;;;2.80;;
18716;SDS011;9487;50.892;6.906;2022-08-30T01:45:29;3.23;;;2.93;;
18716;SDS011;9487;50.892;6.906;2022-08-30T01:47:56;3.10;;;2.80;;
18716;SDS011;9487;50.892;6.906;2022-08-30T01:50:23;6.00;;;3.00;;
18716;SDS011;9487;50.892;6.906;2022-08-30T01:52:50;4.10;;;3.53;;
18716;SDS011;9487;50.892;6.906;2022-08-30T01:55:18;4.00;;;3.03;;
18716;SDS011;9487;50.892;6.906;2022-08-30T01:57:45;3.57;;;2.90;;
18716;SDS011;9487;50.892;6.906;2022-08-30T02:00:14;3.20;;;2.80;;
18716;SDS011;9487;50.892;6.906;2022-08-30T02:02:43;4.20;;;3.23;;
18716;SDS011;9487;50.892;6.906;2022-08-30T02:05:10;3.77;;;2.97;;
18716;SDS011;9487;50.892;6.906;2022-08-30T02:07:37;4.03;;;3.20;;
18716;SDS011;9487;50.892;6.906;2022-08-30T02:10:04;3.43;;;2.50;;
18716;SDS011;9487;50.892;6.906;2022-08-30T02:12:33;4.00;;;2.97;;
18716;SDS011;9487;50.892;6.906;2022-08-30T02:15:00;4.30;;;3.27;;
18716;SDS011;9487;50.892;6.906;2022-08-30T02:17:27;4.13;;;3.00;;
18716;SDS011;9487;50.892;6.906;2022-08-30T02:19:54;6.80;;;3.40;;
18716;SDS011;9487;50.892;6.906;2022-08-30T02:22:21;4.70;;;3.40;;
18716;SDS011;9487;50.892;6.906;2022-08-30T02:24:48;4.33;;;3.30;;
18716;SDS011;9487;50.892;6.906;2022-08-30T02:27:15;5.90;;;3.27;;
18716;SDS011;9487;50.892;6.906;2022-08-30T02:29:43;4.17;;;3.23;;
18716;SDS011;9487;50.892;6.906;2022-08-30T02:32:10;5.63;;;3.37;;
18716;SDS011;9487;50.892;6.906;2022-08-30T02:34:37;3.90;;;3.33;;
18716;SDS011;9487;50.892;6.906;2022-08-30T02:37:04;4.03;;;3.17;;
18716;SDS011;9487;50.892;6.906;2022-08-30T02:39:33;5.03;;;3.40;;
18716;SDS011;9487;50.892;6.906;2022-08-30T02:42:00;4.87;;;3.40;;
18716;SDS011;9487;50.892;6.906;2022-08-30T02:44:27;4.40;;;3.43;;
18716;SDS011;9487;50.892;6.906;2022-08-30T02:46:55;5.07;;;3.70;;
18716;SDS011;9487;50.892;6.906;2022-08-30T02:49:23;4.83;;;2.97;;
18716;SDS011;9487;50.892;6.906;2022-08-30T02:51:50;7.63;;;3.60;;
18716;SDS011;9487;50.892;6.906;2022-08-30T02:54:17;5.30;;;3.57;;
18716;SDS011;9487;50.892;6.906;2022-08-30T02:56:45;6.53;;;3.83;;
18716;SDS011;9487;50.892;6.906;2022-08-30T02:59:13;3.70;;;3.20;;
18716;SDS011;9487;50.892;6.906;2022-08-30T03:01:42;6.03;;;3.90;;
18716;SDS011;9487;50.892;6.906;2022-08-30T03:04:10;4.87;;;3.70;;
18716;SDS011;9487;50.892;6.906;2022-08-30T03:06:37;5.57;;;3.50;;
18716;SDS011;9487;50.892;6.906;2022-08-30T03:09:04;6.97;;;3.47;;
18716;SDS011;9487;50.892;6.906;2022-08-30T03:11:31;4.23;;;3.27;;
18716;SDS011;9487;50.892;6.906;2022-08-30T03:13:58;5.57;;;3.87;;
18716;SDS011;9487;50.892;6.906;2022-08-30T03:16:25;5.80;;;3.50;;
18716;SDS011;9487;50.892;6.906;2022-08-30T03:18:53;5.03;;;3.90;;
18716;SDS011;9487;50.892;6.906;2022-08-30T03:21:21;7.40;;;3.63;;
18716;SDS011;9487;50.892;6.906;2022-08-30T03:23:48;5.83;;;3.20;;
18716;SDS011;9487;50.892;6.906;2022-08-30T03:26:15;5.23;;;3.17;;
18716;SDS011;9487;50.892;6.906;2022-08-30T03:28:43;4.43;;;3.17;;
18716;SDS011;9487;50.892;6.906;2022-08-30T03:31:10;6.77;;;3.93;;
18716;SDS011;9487;50.892;6.906;2022-08-30T03:33:37;4.20;;;3.27;;
18716;SDS011;9487;50.892;6.906;2022-08-30T03:36:05;3.70;;;3.27;;
18716;SDS011;9487;50.892;6.906;2022-08-30T03:38:34;5.00;;;3.57;;
18716;SDS011;9487;50.892;6.906;2022-08-30T03:41:02;3.57;;;3.17;;
18716;SDS011;9487;50.892;6.906;2022-08-30T03:43:30;4.17;;;3.10;;
18716;SDS011;9487;50.892;6.906;2022-08-30T03:45:57;4.47;;;3.23;;
18716;SDS011;9487;50.892;6.906;2022-08-30T03:48:24;5.17;;;3.20;;
18716;SDS011;9487;50.892;6.906;2022-08-30T03:50:51;4.20;;;2.90;;
18716;SDS011;9487;50.892;6.906;2022-08-30T03:53:19;3.80;;;3.23;;
18716;SDS011;9487;50.892;6.906;2022-08-30T03:55:47;3.60;;;2.67;;
18716;SDS011;9487;50.892;6.906;2022-08-30T03:58:15;6.03;;;4.10;;
18716;SDS011;9487;50.892;6.906;2022-08-30T04:00:42;4.63;;;3.33;;
18716;SDS011;9487;50.892;6.906;2022-08-30T04:03:09;4.47;;;3.33;;
18716;SDS011;9487;50.892;6.906;2022-08-30T04:05:36;4.20;;;3.40;;
18716;SDS011;9487;50.892;6.906;2022-08-30T04:08:03;4.40;;;3.40;;
18716;SDS011;9487;50.892;6.906;2022-08-30T04:10:30;5.63;;;3.73;;
18716;SDS011;9487;50.892;6.906;2022-08-30T04:12:58;6.37;;;3.90;;
18716;SDS011;9487;50.892;6.906;2022-08-30T04:15:25;6.23;;;3.80;;
18716;SDS011;9487;50.892;6.906;2022-08-30T04:17:52;5.13;;;3.63;;
18716;SDS011;9487;50.892;6.906;2022-08-30T04:20:19;6.17;;;3.90;;
18716;SDS011;9487;50.892;6.906;2022-08-30T04:22:46;5.40;;;3.97;;
18716;SDS011;9487;50.892;6.906;2022-08-30T04:25:13;5.60;;;3.23;;
18716;SDS011;9487;50.892;6.906;2022-08-30T04:27:40;4.93;;;3.83;;
18716;SDS011;9487;50.892;6.906;2022-08-30T04:30:09;5.20;;;3.60;;
18716;SDS011;9487;50.892;6.906;2022-08-30T04:32:36;6.17;;;4.10;;
18716;SDS011;9487;50.892;6.906;2022-08-30T04:35:04;5.23;;;3.70;;
18716;SDS011;9487;50.892;6.906;2022-08-30T04:37:31;5.00;;;3.70;;
18716;SDS011;9487;50.892;6.906;2022-08-30T04:39:58;6.93;;;4.30;;
18716;SDS011;9487;50.892;6.906;2022-08-30T04:42:25;4.93;;;3.97;;
18716;SDS011;9487;50.892;6.906;2022-08-30T04:44:55;5.77;;;4.30;;
18716;SDS011;9487;50.892;6.906;2022-08-30T04:47:24;6.83;;;3.70;;
18716;SDS011;9487;50.892;6.906;2022-08-30T04:49:50;8.70;;;4.33;;
18716;SDS011;9487;50.892;6.906;2022-08-30T04:52:17;5.67;;;4.33;;
18716;SDS011;9487;50.892;6.906;2022-08-30T04:54:45;6.20;;;4.00;;
18716;SDS011;9487;50.892;6.906;2022-08-30T04:57:12;6.00;;;3.83;;
18716;SDS011;9487;50.892;6.906;2022-08-30T04:59:39;4.90;;;3.80;;
18716;SDS011;9487;50.892;6.906;2022-08-30T05:02:06;5.10;;;3.93;;
18716;SDS011;9487;50.892;6.906;2022-08-30T05:04:34;7.43;;;4.10;;
18716;SDS011;9487;50.892;6.906;2022-08-30T05:07:02;5.13;;;4.17;;
18716;SDS011;9487;50.892;6.906;2022-08-30T05:09:29;5.67;;;3.73;;
18716;SDS011;9487;50.892;6.906;2022-08-30T05:11:55;4.30;;;3.67;;
18716;SDS011;9487;50.892;6.906;2022-08-30T05:14:22;5.17;;;4.00;;
18716;SDS011;9487;50.892;6.906;2022-08-30T05:16:49;4.97;;;3.73;;
18716;SDS011;9487;50.892;6.906;2022-08-30T05:19:16;5.13;;;3.80;;
18716;SDS011;9487;50.892;6.906;2022-08-30T05:21:44;6.27;;;4.20;;
18716;SDS011;9487;50.892;6.906;2022-08-30T05:24:11;6.10;;;4.13;;
18716;SDS011;9487;50.892;6.906;2022-08-30T05:26:38;10.90;;;3.83;;
18716;SDS011;9487;50.892;6.906;2022-08-30T05:29:05;5.27;;;4.03;;
18716;SDS011;9487;50.892;6.906;2022-08-30T05:31:32;6.47;;;4.23;;
18716;SDS011;9487;50.892;6.906;2022-08-30T05:34:01;5.63;;;4.10;;
18716;SDS011;9487;50.892;6.906;2022-08-30T05:36:29;5.60;;;3.90;;
18716;SDS011;9487;50.892;6.906;2022-08-30T05:39:00;4.50;;;4.03;;
18716;SDS011;9487;50.892;6.906;2022-08-30T05:41:27;4.90;;;4.10;;
18716;SDS011;9487;50.892;6.906;2022-08-30T05:43:54;7.00;;;4.03;;
18716;SDS011;9487;50.892;6.906;2022-08-30T05:46:23;7.53;;;4.07;;
18716;SDS011;9487;50.892;6.906;2022-08-30T05:48:53;9.70;;;4.27;;
18716;SDS011;9487;50.892;6.906;2022-08-30T05:51:22;5.87;;;4.63;;
18716;SDS011;9487;50.892;6.906;2022-08-30T05:53:53;4.80;;;4.07;;
18716;SDS011;9487;50.892;6.906;2022-08-30T05:56:23;5.93;;;4.03;;
18716;SDS011;9487;50.892;6.906;2022-08-30T05:58:52;6.93;;;3.93;;
18716;SDS011;9487;50.892;6.906;2022-08-30T06:01:23;7.03;;;4.20;;
18716;SDS011;9487;50.892;6.906;2022-08-30T06:03:51;7.83;;;4.23;;
18716;SDS011;9487;50.892;6.906;2022-08-30T06:06:19;8.07;;;4.63;;
18716;SDS011;9487;50.892;6.906;2022-08-30T06:08:46;5.43;;;3.77;;
18716;SDS011;9487;50.892;6.906;2022-08-30T06:11:13;5.23;;;4.10;;
18716;SDS011;9487;50.892;6.906;2022-08-30T06:13:42;6.20;;;4.20;;
18716;SDS011;9487;50.892;6.906;2022-08-30T06:16:09;6.47;;;3.93;;
18716;SDS011;9487;50.892;6.906;2022-08-30T06:18:37;4.53;;;3.63;;
18716;SDS011;9487;50.892;6.906;2022-08-30T06:21:05;6.27;;;3.60;;
18716;SDS011;9487;50.892;6.906;2022-08-30T06:23:32;5.60;;;3.83;;
18716;SDS011;9487;50.892;6.906;2022-08-30T06:26:01;8.43;;;4.07;;
18716;SDS011;9487;50.892;6.906;2022-08-30T06:28:29;6.33;;;4.50;;
18716;SDS011;9487;50.892;6.906;2022-08-30T06:30:58;5.70;;;3.77;;
18716;SDS011;9487;50.892;6.906;2022-08-30T06:33:25;5.27;;;3.77;;
18716;SDS011;9487;50.892;6.906;2022-08-30T06:35:52;5.73;;;3.60;;
18716;SDS011;9487;50.892;6.906;2022-08-30T06:38:19;5.83;;;3.40;;
18716;SDS011;9487;50.892;6.906;2022-08-30T06:40:45;5.50;;;3.80;;
18716;SDS011;9487;50.892;6.906;2022-08-30T06:43:14;13.80;;;4.87;;
18716;SDS011;9487;50.892;6.906;2022-08-30T06:45:41;7.10;;;4.23;;
18716;SDS011;9487;50.892;6.906;2022-08-30T06:48:10;10.13;;;4.80;;
18716;SDS011;9487;50.892;6.906;2022-08-30T06:50:36;9.10;;;4.47;;
18716;SDS011;9487;50.892;6.906;2022-08-30T06:53:06;6.83;;;4.63;;
18716;SDS011;9487;50.892;6.906;2022-08-30T06:55:33;9.27;;;4.53;;
18716;SDS011;9487;50.892;6.906;2022-08-30T06:57:59;9.00;;;4.37;;
18716;SDS011;9487;50.892;6.906;2022-08-30T07:00:27;8.53;;;4.27;;
18716;SDS011;9487;50.892;6.906;2022-08-30T07:02:54;11.00;;;4.33;;
18716;SDS011;9487;50.892;6.906;2022-08-30T07:05:23;7.60;;;4.43;;
18716;SDS011;9487;50.892;6.906;2022-08-30T07:07:50;6.43;;;4.07;;
18716;SDS011;9487;50.892;6.906;2022-08-30T07:10:18;8.37;;;4.17;;
18716;SDS011;9487;50.892;6.906;2022-08-30T07:12:45;8.00;;;4.20;;
18716;SDS011;9487;50.892;6.906;2022-08-30T07:15:13;7.13;;;3.60;;
18716;SDS011;9487;50.892;6.906;2022-08-30T07:17:40;7.37;;;3.83;;
18716;SDS011;9487;50.892;6.906;2022-08-30T07:20:25;7.23;;;3.70;;
18716;SDS011;9487;50.892;6.906;2022-08-30T07:22:52;6.27;;;3.47;;
18716;SDS011;9487;50.892;6.906;2022-08-30T07:25:19;7.77;;;4.17;;
18716;SDS011;9487;50.892;6.906;2022-08-30T07:27:46;6.27;;;3.80;;
18716;SDS011;9487;50.892;6.906;2022-08-30T07:30:16;7.80;;;3.47;;
18716;SDS011;9487;50.892;6.906;2022-08-30T07:32:43;4.63;;;3.10;;
18716;SDS011;9487;50.892;6.906;2022-08-30T07:35:10;5.20;;;3.47;;
18716;SDS011;9487;50.892;6.906;2022-08-30T07:37:39;4.33;;;3.23;;
18716;SDS011;9487;50.892;6.906;2022-08-30T07:40:06;6.53;;;3.50;;
18716;SDS011;9487;50.892;6.906;2022-08-30T07:42:34;4.83;;;2.80;;
18716;SDS011;9487;50.892;6.906;2022-08-30T07:45:01;7.27;;;3.47;;
18716;SDS011;9487;50.892;6.906;2022-08-30T07:47:28;5.07;;;3.30;;
18716;SDS011;9487;50.892;6.906;2022-08-30T07:49:55;3.80;;;2.93;;
18716;SDS011;9487;50.892;6.906;2022-08-30T07:52:24;6.87;;;3.53;;
18716;SDS011;9487;50.892;6.906;2022-08-30T07:54:52;5.70;;;2.70;;
18716;SDS011;9487;50.892;6.906;2022-08-30T07:57:20;4.77;;;3.50;;
18716;SDS011;9487;50.892;6.906;2022-08-30T07:59:47;9.33;;;3.40;;
18716;SDS011;9487;50.892;6.906;2022-08-30T08:02:15;5.83;;;3.00;;
18716;SDS011;9487;50.892;6.906;2022-08-30T08:04:42;5.40;;;2.93;;
18716;SDS011;9487;50.892;6.906;2022-08-30T08:07:09;5.00;;;3.00;;
18716;SDS011;9487;50.892;6.906;2022-08-30T08:09:36;4.53;;;2.70;;
18716;SDS011;9487;50.892;6.906;2022-08-30T08:12:05;4.70;;;3.00;;
18716;SDS011;9487;50.892;6.906;2022-08-30T08:14:32;7.43;;;2.90;;
18716;SDS011;9487;50.892;6.906;2022-08-30T08:17:00;6.03;;;3.10;;
18716;SDS011;9487;50.892;6.906;2022-08-30T08:19:29;6.03;;;2.90;;
18716;SDS011;9487;50.892;6.906;2022-08-30T08:21:56;6.83;;;3.43;;
18716;SDS011;9487;50.892;6.906;2022-08-30T08:24:24;4.63;;;3.37;;
18716;SDS011;9487;50.892;6.906;2022-08-30T08:26:52;5.20;;;3.20;;
18716;SDS011;9487;50.892;6.906;2022-08-30T08:29:20;4.93;;;3.00;;
18716;SDS011;9487;50.892;6.906;2022-08-30T08:31:47;4.50;;;2.90;;
18716;SDS011;9487;50.892;6.906;2022-08-30T08:34:14;3.93;;;3.30;;
18716;SDS011;9487;50.892;6.906;2022-08-30T08:36:43;4.07;;;3.40;;
18716;SDS011;9487;50.892;6.906;2022-08-30T08:39:12;5.30;;;3.10;;
18716;SDS011;9487;50.892;6.906;2022-08-30T08:41:40;7.50;;;4.33;;
18716;SDS011;9487;50.892;6.906;2022-08-30T08:44:17;7.10;;;3.77;;
18716;SDS011;9487;50.892;6.906;2022-08-30T08:46:55;4.80;;;3.30;;
18716;SDS011;9487;50.892;6.906;2022-08-30T08:49:29;4.07;;;3.20;;
18716;SDS011;9487;50.892;6.906;2022-08-30T08:51:57;4.05;;;2.92;;
18716;SDS011;9487;50.892;6.906;2022-08-30T08:54:42;5.25;;;3.15;;
18716;SDS011;9487;50.892;6.906;2022-08-30T08:57:14;4.95;;;3.15;;
18716;SDS011;9487;50.892;6.906;2022-08-30T08:59:43;6.83;;;3.10;;
18716;SDS011;9487;50.892;6.906;2022-08-30T09:02:15;4.25;;;3.05;;
18716;SDS011;9487;50.892;6.906;2022-08-30T09:04:49;4.00;;;3.00;;
18716;SDS011;9487;50.892;6.906;2022-08-30T09:07:20;4.70;;;3.03;;
18716;SDS011;9487;50.892;6.906;2022-08-30T09:09:49;4.75;;;3.10;;
18716;SDS011;9487;50.892;6.906;2022-08-30T09:12:16;3.58;;;2.72;;
18716;SDS011;9487;50.892;6.906;2022-08-30T09:14:45;5.20;;;3.60;;
18716;SDS011;9487;50.892;6.906;2022-08-30T09:17:15;5.85;;;3.20;;
18716;SDS011;9487;50.892;6.906;2022-08-30T09:19:44;4.45;;;3.10;;
18716;SDS011;9487;50.892;6.906;2022-08-30T09:22:23;4.95;;;3.50;;
18716;SDS011;9487;50.892;6.906;2022-08-30T09:24:58;6.85;;;3.28;;
18716;SDS011;9487;50.892;6.906;2022-08-30T09:27:28;4.15;;;3.20;;
18716;SDS011;9487;50.892;6.906;2022-08-30T09:30:05;5.43;;;2.92;;
18716;SDS011;9487;50.892;6.906;2022-08-30T09:32:36;5.68;;;3.15;;
18716;SDS011;9487;50.892;6.906;2022-08-30T09:35:05;4.05;;;3.03;;
18716;SDS011;9487;50.892;6.906;2022-08-30T09:37:36;5.32;;;2.95;;
18716;SDS011;9487;50.892;6.906;2022-08-30T09:40:11;6.55;;;2.78;;
18716;SDS011;9487;50.892;6.906;2022-08-30T09:42:41;5.22;;;3.22;;
18716;SDS011;9487;50.892;6.906;2022-08-30T09:45:29;3.53;;;3.15;;
18716;SDS011;9487;50.892;6.906;2022-08-30T09:48:00;5.75;;;3.40;;
18716;SDS011;9487;50.892;6.906;2022-08-30T09:50:45;4.32;;;2.90;;
18716;SDS011;9487;50.892;6.906;2022-08-30T09:53:18;5.78;;;3.33;;
18716;SDS011;9487;50.892;6.906;2022-08-30T09:55:53;6.80;;;2.90;;
18716;SDS011;9487;50.892;6.906;2022-08-30T09:58:31;4.32;;;2.78;;
18716;SDS011;9487;50.892;6.906;2022-08-30T10:01:08;3.63;;;2.80;;
18716;SDS011;9487;50.892;6.906;2022-08-30T10:03:39;3.25;;;2.60;;
18716;SDS011;9487;50.892;6.906;2022-08-30T10:06:15;4.57;;;2.80;;
18716;SDS011;9487;50.892;6.906;2022-08-30T10:08:52;4.13;;;2.60;;
18716;SDS011;9487;50.892;6.906;2022-08-30T10:11:31;5.65;;;2.90;;
18716;SDS011;9487;50.892;6.906;2022-08-30T10:14:13;4.90;;;3.13;;
18716;SDS011;9487;50.892;6.906;2022-08-30T10:17:01;5.45;;;3.00;;
18716;SDS011;9487;50.892;6.906;2022-08-30T10:19:41;6.88;;;3.20;;
18716;SDS011;9487;50.892;6.906;2022-08-30T10:22:22;4.40;;;2.72;;
18716;SDS011;9487;50.892;6.906;2022-08-30T10:24:54;3.60;;;2.75;;
18716;SDS011;9487;50.892;6.906;2022-08-30T10:27:29;6.78;;;3.30;;
18716;SDS011;9487;50.892;6.906;2022-08-30T10:30:02;6.68;;;3.40;;
18716;SDS011;9487;50.892;6.906;2022-08-30T10:32:33;5.07;;;3.25;;
18716;SDS011;9487;50.892;6.906;2022-08-30T10:35:05;6.20;;;3.10;;
18716;SDS011;9487;50.892;6.906;2022-08-30T10:37:36;6.47;;;3.25;;
18716;SDS011;9487;50.892;6.906;2022-08-30T10:40:12;6.50;;;3.25;;
18716;SDS011;9487;50.892;6.906;2022-08-30T10:43:02;6.45;;;3.08;;
18716;SDS011;9487;50.892;6.906;2022-08-30T10:45:37;4.60;;;2.80;;
18716;SDS011;9487;50.892;6.906;2022-08-30T10:48:12;3.80;;;3.00;;
18716;SDS011;9487;50.892;6.906;2022-08-30T10:50:46;4.85;;;2.80;;
18716;SDS011;9487;50.892;6.906;2022-08-30T10:53:18;4.07;;;3.00;;
18716;SDS011;9487;50.892;6.906;2022-08-30T10:55:50;5.55;;;3.67;;
18716;SDS011;9487;50.892;6.906;2022-08-30T10:58:19;5.75;;;3.33;;
18716;SDS011;9487;50.892;6.906;2022-08-30T11:00:52;3.60;;;3.30;;
18716;SDS011;9487;50.892;6.906;2022-08-30T11:06:31;6.07;;;3.30;;
18716;SDS011;9487;50.892;6.906;2022-08-30T11:09:19;5.22;;;3.22;;
18716;SDS011;9487;50.892;6.906;2022-08-30T11:14:50;5.80;;;3.30;;
18716;SDS011;9487;50.892;6.906;2022-08-30T11:17:21;5.80;;;3.15;;
18716;SDS011;9487;50.892;6.906;2022-08-30T11:19:52;4.22;;;3.20;;
18716;SDS011;9487;50.892;6.906;2022-08-30T11:22:23;4.75;;;3.28;;
18716;SDS011;9487;50.892;6.906;2022-08-30T11:25:04;6.28;;;3.22;;
18716;SDS011;9487;50.892;6.906;2022-08-30T11:27:47;5.03;;;3.05;;
18716;SDS011;9487;50.892;6.906;2022-08-30T11:33:28;3.40;;;3.10;;
18716;SDS011;9487;50.892;6.906;2022-08-30T11:36:05;5.38;;;2.92;;
18716;SDS011;9487;50.892;6.906;2022-08-30T11:41:31;4.43;;;3.13;;
18716;SDS011;9487;50.892;6.906;2022-08-30T11:44:17;3.88;;;2.83;;
18716;SDS011;9487;50.892;6.906;2022-08-30T11:46:53;5.13;;;3.67;;
18716;SDS011;9487;50.892;6.906;2022-08-30T11:55:17;4.55;;;2.80;;
18716;SDS011;9487;50.892;6.906;2022-08-30T11:58:06;5.10;;;3.40;;
18716;SDS011;9487;50.892;6.906;2022-08-30T12:00:42;3.45;;;3.08;;
18716;SDS011;9487;50.892;6.906;2022-08-30T12:03:26;4.05;;;3.10;;
18716;SDS011;9487;50.892;6.906;2022-08-30T12:05:56;3.60;;;3.15;;
18716;SDS011;9487;50.892;6.906;2022-08-30T12:08:40;6.15;;;3.47;;
18716;SDS011;9487;50.892;6.906;2022-08-30T12:14:36;3.97;;;3.50;;
18716;SDS011;9487;50.892;6.906;2022-08-30T12:17:10;6.13;;;3.38;;
18716;SDS011;9487;50.892;6.906;2022-08-30T12:19:57;3.95;;;3.45;;
18716;SDS011;9487;50.892;6.906;2022-08-30T12:22:25;4.53;;;3.13;;
18716;SDS011;9487;50.892;6.906;2022-08-30T12:24:54;4.35;;;3.40;;
18716;SDS011;9487;50.892;6.906;2022-08-30T12:27:23;3.83;;;3.25;;
18716;SDS011;9487;50.892;6.906;2022-08-30T12:29:53;5.35;;;3.78;;
18716;SDS011;9487;50.892;6.906;2022-08-30T12:32:21;4.90;;;3.20;;
18716;SDS011;9487;50.892;6.906;2022-08-30T12:34:49;5.07;;;3.88;;
18716;SDS011;9487;50.892;6.906;2022-08-30T12:37:20;10.88;;;3.50;;
18716;SDS011;9487;50.892;6.906;2022-08-30T12:39:52;4.75;;;3.38;;
18716;SDS011;9487;50.892;6.906;2022-08-30T12:42:28;5.03;;;3.35;;
18716;SDS011;9487;50.892;6.906;2022-08-30T12:44:58;5.03;;;3.17;;
18716;SDS011;9487;50.892;6.906;2022-08-30T12:47:27;5.30;;;3.40;;
18716;SDS011;9487;50.892;6.906;2022-08-30T12:50:02;4.38;;;3.35;;
18716;SDS011;9487;50.892;6.906;2022-08-30T12:52:34;4.10;;;3.30;;
18716;SDS011;9487;50.892;6.906;2022-08-30T12:55:06;5.28;;;3.20;;
18716;SDS011;9487;50.892;6.906;2022-08-30T12:57:39;6.75;;;3.45;;
18716;SDS011;9487;50.892;6.906;2022-08-30T13:00:10;4.40;;;3.35;;
18716;SDS011;9487;50.892;6.906;2022-08-30T13:02:49;5.88;;;3.53;;
18716;SDS011;9487;50.892;6.906;2022-08-30T13:05:30;3.85;;;3.22;;
18716;SDS011;9487;50.892;6.906;2022-08-30T13:10:54;6.30;;;3.42;;
18716;SDS011;9487;50.892;6.906;2022-08-30T13:16:10;4.45;;;3.22;;
18716;SDS011;9487;50.892;6.906;2022-08-30T13:18:47;6.03;;;3.72;;
18716;SDS011;9487;50.892;6.906;2022-08-30T13:21:23;4.15;;;3.50;;
18716;SDS011;9487;50.892;6.906;2022-08-30T13:23:54;4.25;;;3.50;;
18716;SDS011;9487;50.892;6.906;2022-08-30T13:26:23;4.53;;;3.10;;
18716;SDS011;9487;50.892;6.906;2022-08-30T13:28:50;4.13;;;3.03;;
18716;SDS011;9487;50.892;6.906;2022-08-30T13:31:20;4.53;;;3.13;;
18716;SDS011;9487;50.892;6.906;2022-08-30T13:33:47;3.40;;;3.08;;
18716;SDS011;9487;50.892;6.906;2022-08-30T13:36:18;5.65;;;3.85;;
18716;SDS011;9487;50.892;6.906;2022-08-30T13:38:50;5.45;;;3.75;;
18716;SDS011;9487;50.892;6.906;2022-08-30T13:41:17;6.97;;;3.58;;
18716;SDS011;9487;50.892;6.906;2022-08-30T13:43:45;7.95;;;3.90;;
18716;SDS011;9487;50.892;6.906;2022-08-30T13:46:12;6.72;;;4.35;;
18716;SDS011;9487;50.892;6.906;2022-08-30T13:48:42;4.70;;;3.40;;
18716;SDS011;9487;50.892;6.906;2022-08-30T13:51:09;3.83;;;3.33;;
18716;SDS011;9487;50.892;6.906;2022-08-30T13:53:36;9.23;;;3.53;;
18716;SDS011;9487;50.892;6.906;2022-08-30T13:56:03;4.10;;;3.17;;
18716;SDS011;9487;50.892;6.906;2022-08-30T13:58:30;6.78;;;3.60;;
18716;SDS011;9487;50.892;6.906;2022-08-30T14:00:57;3.92;;;3.50;;
18716;SDS011;9487;50.892;6.906;2022-08-30T14:03:24;6.00;;;3.78;;
18716;SDS011;9487;50.892;6.906;2022-08-30T14:05:53;5.45;;;3.63;;
18716;SDS011;9487;50.892;6.906;2022-08-30T14:08:20;5.00;;;3.78;;
18716;SDS011;9487;50.892;6.906;2022-08-30T14:10:49;4.38;;;3.95;;
18716;SDS011;9487;50.892;6.906;2022-08-30T14:13:15;7.07;;;4.35;;
18716;SDS011;9487;50.892;6.906;2022-08-30T14:15:42;6.53;;;3.85;;
18716;SDS011;9487;50.892;6.906;2022-08-30T14:18:09;6.85;;;3.88;;
18716;SDS011;9487;50.892;6.906;2022-08-30T14:20:36;6.53;;;3.80;;
18716;SDS011;9487;50.892;6.906;2022-08-30T14:23:05;5.45;;;4.15;;
18716;SDS011;9487;50.892;6.906;2022-08-30T14:25:32;7.13;;;4.53;;
18716;SDS011;9487;50.892;6.906;2022-08-30T14:27:59;6.55;;;4.55;;
18716;SDS011;9487;50.892;6.906;2022-08-30T14:30:26;4.72;;;4.10;;
18716;SDS011;9487;50.892;6.906;2022-08-30T14:32:53;5.72;;;4.32;;
18716;SDS011;9487;50.892;6.906;2022-08-30T14:35:20;5.15;;;4.38;;
18716;SDS011;9487;50.892;6.906;2022-08-30T14:37:47;5.72;;;4.20;;
18716;SDS011;9487;50.892;6.906;2022-08-30T14:40:16;7.05;;;4.85;;
18716;SDS011;9487;50.892;6.906;2022-08-30T14:42:43;5.13;;;4.72;;
18716;SDS011;9487;50.892;6.906;2022-08-30T14:45:11;8.30;;;5.75;;
18716;SDS011;9487;50.892;6.906;2022-08-30T14:47:38;5.85;;;5.35;;
18716;SDS011;9487;50.892;6.906;2022-08-30T14:50:05;7.53;;;4.10;;
18716;SDS011;9487;50.892;6.906;2022-08-30T14:52:33;6.90;;;5.15;;
18716;SDS011;9487;50.892;6.906;2022-08-30T14:55:00;7.00;;;5.47;;
18716;SDS011;9487;50.892;6.906;2022-08-30T14:57:30;5.93;;;5.43;;
18716;SDS011;9487;50.892;6.906;2022-08-30T14:59:57;7.82;;;5.07;;
18716;SDS011;9487;50.892;6.906;2022-08-30T15:02:24;4.50;;;4.07;;
18716;SDS011;9487;50.892;6.906;2022-08-30T15:04:51;4.10;;;3.40;;
18716;SDS011;9487;50.892;6.906;2022-08-30T15:07:18;6.57;;;3.72;;
18716;SDS011;9487;50.892;6.906;2022-08-30T15:09:45;5.00;;;3.72;;
18716;SDS011;9487;50.892;6.906;2022-08-30T15:12:12;6.15;;;3.80;;
18716;SDS011;9487;50.892;6.906;2022-08-30T15:14:40;4.15;;;3.45;;
18716;SDS011;9487;50.892;6.906;2022-08-30T15:17:07;7.00;;;4.03;;
18716;SDS011;9487;50.892;6.906;2022-08-30T15:19:34;5.90;;;3.80;;
18716;SDS011;9487;50.892;6.906;2022-08-30T15:22:02;12.57;;;3.92;;
18716;SDS011;9487;50.892;6.906;2022-08-30T15:24:30;4.95;;;3.72;;
18716;SDS011;9487;50.892;6.906;2022-08-30T15:26:58;5.60;;;4.20;;
18716;SDS011;9487;50.892;6.906;2022-08-30T15:29:26;4.10;;;3.33;;
18716;SDS011;9487;50.892;6.906;2022-08-30T15:31:55;5.60;;;3.65;;
18716;SDS011;9487;50.892;6.906;2022-08-30T15:34:22;7.82;;;4.03;;
18716;SDS011;9487;50.892;6.906;2022-08-30T15:36:49;5.05;;;3.95;;
18716;SDS011;9487;50.892;6.906;2022-08-30T15:39:17;4.22;;;3.65;;
18716;SDS011;9487;50.892;6.906;2022-08-30T15:41:44;5.53;;;4.00;;